Terminal Aerodrome Forecast
Issued by NWS Wilmington, OH

Current Version | Previous Version | Text Only | Print | Product List | Glossary Off
Versions: 1 2 3 4 5 6 7 8 9 10 11 12 13 14 15 16 17 18 19 20 21 22 23

000
FTUS41 KILN 221100
TAFCMH
TAF
KCMH 221120Z 2212/2312 30008KT 5SM BR OVC015
      TEMPO 2212/2214 2SM -DZ BR OVC008
     FM221500 31007KT P6SM OVC015
     FM222100 34006KT P6SM OVC025
     FM230300 VRB03KT P6SM BKN025=

USA.gov is the U.S. government's official web portal to all federal, state and local government web resources and services.